YCDS weather

Childers Airport
Queensland, Australia

Public forecast

Using degrees Celsius for public forecast. Weather courtesy of forecast.io.

Closest aviation weather report (METAR) to Childers Airport

Closest report is Bundaberg Airport, 21.0 nm (38.9 km) N. Retrieved 2019/10/23 06:00 UTC (49 minutes ago):

YBUD 230600Z AUTO 06014KT 9999 // SCT039 24/14 Q1020

Closest aviation forecast (TAF) to Childers Airport

Closest forecast is Gladstone Airport, 102.9 nm (190.6 km) NW. Retrieved 2019/10/23 06:00 UTC (49 minutes ago):

TAF YGLA 230521Z 2306/2318 08014KT 9999 SCT045 FM231000 10010KT 9999 SCT050 FM231400 13006KT 9999 SCT020